KNFL/NFL METAR and TAF weather

Enter ICAO airport designator
Station Type Date Time Source
KNFL METAR 2020/09/19 18:56 UTC NOAA

KNFL 191856Z VRB04KT 5SM FU SCT035 21/02 A3013 RMK AO2 SLP168 FU SCT035 FU ALQDS T02110022 $


Station Type Date Time Source
KNFL Decoded METAR 2020/09/19 18:56 UTC NOAA

FALLON NAVAL AIR STATION, NV, United States (KNFL) 39-26N 118-41W 1199M
Sep 19, 2020 - 02:56 PM EDT / 2020.09.19 1856 UTC
Wind: Variable at 5 MPH (4 KT):0
Visibility: 5 mile(s):0
Sky conditions: partly cloudy
Weather: smoke
Temperature: 70.0 F (21.1 C)
Dew Point: 36.0 F (2.2 C)
Relative Humidity: 28%
Pressure (altimeter): 30.13 in. Hg (1020 hPa)
ob: KNFL 191856Z VRB04KT 5SM FU SCT035 21/02 A3013 RMK AO2 SLP168 FU SCT035 FU ALQDS T02110022
cycle: 19

Station Type Date Time Source
KNFL TAF 2020/09/19 15:12 UTC NOAA

TAF KNFL 1915/2015 VRB06KT 9000 FU HZ CLR QNH3006INS T24/1923Z T10/2023Z FS30148

Example: see airport list